createdAt,value
2019-04-25T00:01:43.923Z,22.33
2019-04-25T00:04:11.724Z,23.23
2019-04-25T00:06:38.589Z,24.83
2019-04-25T00:09:09.170Z,23.43
2019-04-25T00:11:35.001Z,22.27
2019-04-25T00:14:01.589Z,24.73
2019-04-25T00:16:31.113Z,20.13
2019-04-25T00:18:57.141Z,23.57
2019-04-25T00:21:37.081Z,28.70
2019-04-25T00:24:08.405Z,27.77
2019-04-25T00:26:38.996Z,21.43
2019-04-25T00:29:05.032Z,22.63
2019-04-25T00:31:31.899Z,24.33
2019-04-25T00:33:57.968Z,24.17
2019-04-25T00:36:23.827Z,24.13
2019-04-25T00:38:50.218Z,24.00
2019-04-25T00:41:17.519Z,25.30
2019-04-25T00:43:44.082Z,23.07
2019-04-25T00:46:11.385Z,27.07
2019-04-25T00:48:37.385Z,23.17
2019-04-25T00:51:03.406Z,25.13
2019-04-25T00:53:29.245Z,25.47
2019-04-25T00:55:55.193Z,25.10
2019-04-25T00:58:23.019Z,25.97
2019-04-25T01:00:56.923Z,22.50
2019-04-25T01:03:24.738Z,23.73
2019-04-25T01:05:53.277Z,25.13
2019-04-25T01:08:18.723Z,25.40
2019-04-25T01:10:44.757Z,23.37
2019-04-25T01:13:11.474Z,25.60
2019-04-25T01:15:37.557Z,26.50
2019-04-25T01:18:03.684Z,24.73
2019-04-25T01:20:29.579Z,25.90
2019-04-25T01:22:57.762Z,23.17
2019-04-25T01:25:23.452Z,23.97
2019-04-25T01:27:49.775Z,20.27
2019-04-25T01:30:19.031Z,20.23
2019-04-25T01:32:44.979Z,21.93
2019-04-25T01:35:13.995Z,23.00
2019-04-25T01:37:43.725Z,23.90
2019-04-25T01:40:14.679Z,24.73
2019-04-25T01:42:43.835Z,23.47
2019-04-25T01:45:10.211Z,21.93
2019-04-25T01:47:36.067Z,23.97
2019-04-25T01:50:04.001Z,23.87
2019-04-25T01:52:30.063Z,21.73
2019-04-25T01:54:56.266Z,19.63
2019-04-25T01:57:23.965Z,19.13
2019-04-25T01:59:49.959Z,20.70
2019-04-25T02:02:17.702Z,23.03
2019-04-25T02:04:44.367Z,20.60
2019-04-25T02:07:10.615Z,21.60
2019-04-25T02:09:36.764Z,23.07
2019-04-25T02:12:07.576Z,22.03
2019-04-25T02:14:33.747Z,27.03
2019-04-25T02:17:00.364Z,23.00
2019-04-25T02:19:26.386Z,24.53
2019-04-25T02:21:54.509Z,23.43
2019-04-25T02:24:20.346Z,24.97
2019-04-25T02:26:46.232Z,24.73
2019-04-25T02:29:13.591Z,22.73
2019-04-25T02:31:39.741Z,27.37
2019-04-25T02:34:08.343Z,22.23
2019-04-25T02:36:34.668Z,23.33
2019-04-25T02:39:03.448Z,25.57
2019-04-25T02:41:28.549Z,29.87
2019-04-25T02:43:59.982Z,30.63
2019-04-25T02:46:41.139Z,28.63
2019-04-25T02:49:09.758Z,27.27
2019-04-25T02:51:40.305Z,29.20
2019-04-25T02:54:08.072Z,29.67
2019-04-25T02:56:37.861Z,22.80
2019-04-25T02:59:03.548Z,28.47
2019-04-25T03:01:30.147Z,24.37
2019-04-25T03:03:57.423Z,24.13
2019-04-25T03:06:25.052Z,22.77
2019-04-25T03:08:51.175Z,22.13
2019-04-25T03:11:17.103Z,20.63
2019-04-25T03:13:44.157Z,21.33
2019-04-25T03:16:11.061Z,20.07
2019-04-25T03:18:39.159Z,25.10
2019-04-25T03:21:13.890Z,21.50
2019-04-25T03:23:37.733Z,18.20
2019-04-25T03:26:05.202Z,20.57
2019-04-25T03:28:33.992Z,28.30
2019-04-25T03:31:02.096Z,27.73
2019-04-25T03:33:28.120Z,27.03
2019-04-25T03:35:54.457Z,25.20
2019-04-25T03:38:20.541Z,24.63
2019-04-25T03:40:46.578Z,25.43
2019-04-25T03:43:14.838Z,28.87
2019-04-25T03:45:40.345Z,29.67
2019-04-25T03:48:06.475Z,32.00
2019-04-25T03:50:34.069Z,33.10
2019-04-25T03:53:00.125Z,30.53
2019-04-25T03:55:26.089Z,25.40
2019-04-25T03:57:51.908Z,25.83
2019-04-25T04:00:18.053Z,25.73
2019-04-25T04:02:44.383Z,28.13
2019-04-25T04:05:11.441Z,26.17
2019-04-25T04:07:37.428Z,29.07
2019-04-25T04:10:05.776Z,27.50
2019-04-25T04:12:33.913Z,26.87
2019-04-25T04:15:00.288Z,25.40
2019-04-25T04:17:28.036Z,25.13
2019-04-25T04:20:03.823Z,24.10
2019-04-25T04:22:37.638Z,28.70
2019-04-25T04:25:05.927Z,26.80
2019-04-25T04:27:31.820Z,22.50
2019-04-25T04:29:57.656Z,29.07
2019-04-25T04:32:24.208Z,27.87
2019-04-25T04:34:50.334Z,23.47
2019-04-25T04:37:16.354Z,25.70
2019-04-25T04:39:43.726Z,20.50
2019-04-25T04:42:09.727Z,22.40
2019-04-25T04:44:35.572Z,19.83
2019-04-25T04:47:01.953Z,20.23
2019-04-25T04:49:28.293Z,18.97
2019-04-25T04:51:54.255Z,22.87
2019-04-25T04:54:20.158Z,23.90
2019-04-25T04:56:46.046Z,24.87
2019-04-25T04:59:12.856Z,22.43
2019-04-25T05:01:58.486Z,19.70
2019-04-25T05:04:26.307Z,19.70
2019-04-25T05:06:54.104Z,18.80
2019-04-25T05:09:23.779Z,18.20
2019-04-25T05:11:49.615Z,16.43
2019-04-25T05:14:16.221Z,14.80
2019-04-25T05:16:43.198Z,18.87
2019-04-25T05:19:09.364Z,15.83
2019-04-25T05:21:35.283Z,25.47
2019-04-25T05:24:01.114Z,16.67
2019-04-25T05:26:27.077Z,17.63
2019-04-25T05:28:53.311Z,18.00
2019-04-25T05:31:25.712Z,15.37
2019-04-25T05:33:53.512Z,13.73
2019-04-25T05:36:19.737Z,18.33
2019-04-25T05:38:45.585Z,19.90
2019-04-25T05:41:14.788Z,22.20
2019-04-25T05:43:41.222Z,17.07
2019-04-25T05:46:07.323Z,21.90
2019-04-25T05:48:34.028Z,26.77
2019-04-25T05:51:00.003Z,23.60
2019-04-25T05:53:26.332Z,21.00
2019-04-25T05:55:52.158Z,18.17
2019-04-25T05:58:18.545Z,19.00
2019-04-25T06:00:44.737Z,18.17
2019-04-25T06:03:10.827Z,16.77
2019-04-25T06:05:36.758Z,20.53
2019-04-25T06:08:04.342Z,20.33
2019-04-25T06:10:38.185Z,16.27
2019-04-25T06:13:13.644Z,17.93
2019-04-25T06:15:40.313Z,18.03
2019-04-25T06:18:17.142Z,22.77
2019-04-25T06:20:44.287Z,16.83
2019-04-25T06:23:18.886Z,19.43
2019-04-25T06:25:45.282Z,18.50
2019-04-25T06:28:16.024Z,18.53
2019-04-25T06:30:41.864Z,17.70
2019-04-25T06:33:07.971Z,19.33
2019-04-25T06:35:35.687Z,16.23
2019-04-25T06:38:03.502Z,20.60
2019-04-25T06:40:30.679Z,17.47
2019-04-25T06:42:56.632Z,14.37
2019-04-25T06:45:26.692Z,15.00
2019-04-25T06:48:06.409Z,15.37
2019-04-25T06:50:34.115Z,14.73
2019-04-25T06:53:03.521Z,18.50
2019-04-25T06:55:31.174Z,17.93
2019-04-25T06:58:08.885Z,23.80
2019-04-25T07:00:28.440Z,24.23
2019-04-25T07:02:53.249Z,24.47
2019-04-25T07:05:30.499Z,26.40
2019-04-25T07:07:47.568Z,25.27
2019-04-25T07:10:14.009Z,29.07
2019-04-25T07:12:39.981Z,35.23
2019-04-25T07:15:08.225Z,29.87
2019-04-25T07:17:34.975Z,33.90
2019-04-25T07:20:04.608Z,32.83
2019-04-25T07:22:30.722Z,28.43
2019-04-25T07:24:56.541Z,31.27
2019-04-25T07:27:25.434Z,34.70
2019-04-25T07:29:53.939Z,34.07
2019-04-25T07:32:30.820Z,26.50
2019-04-25T07:34:55.924Z,31.33
2019-04-25T07:37:21.878Z,31.30
2019-04-25T07:39:48.141Z,28.13
2019-04-25T07:42:14.152Z,24.43
2019-04-25T07:44:49.773Z,32.43
2019-04-25T07:47:07.961Z,27.60
2019-04-25T07:49:34.841Z,25.93
2019-04-25T07:52:01.115Z,38.50
2019-04-25T07:54:27.879Z,28.40
2019-04-25T07:56:55.126Z,31.43
2019-04-25T07:59:21.126Z,30.87
2019-04-25T08:01:47.067Z,25.50
2019-04-25T08:04:13.678Z,26.10
2019-04-25T08:06:39.857Z,27.70
2019-04-25T08:09:08.470Z,28.77
2019-04-25T08:11:35.101Z,25.77
2019-04-25T08:14:07.051Z,25.70
2019-04-25T08:16:35.714Z,23.80
2019-04-25T08:19:03.954Z,24.83
2019-04-25T08:21:32.104Z,24.37
2019-04-25T08:23:59.964Z,25.13
2019-04-25T08:26:25.878Z,27.43
2019-04-25T08:28:55.783Z,28.33
2019-04-25T08:31:19.594Z,29.13
2019-04-25T08:33:46.630Z,28.90
2019-04-25T08:36:13.669Z,25.03
2019-04-25T08:38:40.296Z,25.80
2019-04-25T08:41:06.305Z,28.13
2019-04-25T08:43:34.226Z,28.23
2019-04-25T08:46:00.317Z,27.03
2019-04-25T08:48:28.102Z,26.67
2019-04-25T08:51:13.498Z,28.53
2019-04-25T08:53:45.065Z,24.97
2019-04-25T08:56:13.361Z,29.47
2019-04-25T08:58:43.653Z,26.30
2019-04-25T09:01:21.575Z,32.20
2019-04-25T09:03:55.568Z,29.50
2019-04-25T09:06:22.193Z,32.23
2019-04-25T09:08:48.065Z,34.97
2019-04-25T09:11:14.045Z,29.43
2019-04-25T09:13:39.874Z,30.67
2019-04-25T09:16:05.727Z,30.37
2019-04-25T09:18:31.597Z,29.83
2019-04-25T09:20:57.453Z,32.57
2019-04-25T09:23:23.714Z,28.80
2019-04-25T09:25:49.801Z,30.50
2019-04-25T09:28:15.632Z,30.23
2019-04-25T09:30:42.430Z,32.87
2019-04-25T09:33:08.952Z,30.77
2019-04-25T09:35:36.112Z,34.53
2019-04-25T09:38:03.453Z,33.77
2019-04-25T09:40:29.519Z,35.27
2019-04-25T09:42:57.254Z,36.43
2019-04-25T09:45:43.546Z,33.43
2019-04-25T09:48:20.133Z,37.57
2019-04-25T09:51:07.507Z,29.80
2019-04-25T09:53:38.831Z,37.10
2019-04-25T09:56:04.225Z,31.70
2019-04-25T09:58:34.662Z,34.50
2019-04-25T10:01:03.809Z,33.90
2019-04-25T10:03:30.471Z,31.43
2019-04-25T10:05:56.299Z,38.37
2019-04-25T10:08:24.157Z,34.53
2019-04-25T10:10:50.230Z,35.27
2019-04-25T10:13:16.160Z,30.70
2019-04-25T10:16:03.933Z,45.43
2019-04-25T10:18:30.869Z,35.97
2019-04-25T10:20:57.006Z,31.80
2019-04-25T10:23:24.076Z,28.97
2019-04-25T10:25:50.232Z,29.30
2019-04-25T10:28:16.275Z,32.67
2019-04-25T10:30:43.514Z,30.13
2019-04-25T10:33:09.693Z,29.70
2019-04-25T10:35:46.643Z,30.43
2019-04-25T10:38:04.624Z,25.80
2019-04-25T10:40:30.732Z,25.43
2019-04-25T10:42:56.810Z,27.20
2019-04-25T10:45:24.269Z,25.77
2019-04-25T10:47:50.818Z,32.07
2019-04-25T10:50:16.872Z,26.47
2019-04-25T10:52:45.464Z,28.47
2019-04-25T10:55:11.200Z,25.37
2019-04-25T10:57:37.162Z,27.90
2019-04-25T11:00:09.628Z,28.07
2019-04-25T11:02:35.748Z,30.23
2019-04-25T11:05:04.770Z,32.27
2019-04-25T11:07:30.581Z,32.10
2019-04-25T11:09:56.422Z,28.03
2019-04-25T11:12:23.475Z,23.57
2019-04-25T11:14:49.645Z,23.20
2019-04-25T11:17:15.655Z,25.27
2019-04-25T11:19:42.486Z,21.30
2019-04-25T11:22:09.484Z,24.63
2019-04-25T11:24:35.670Z,22.73
2019-04-25T11:27:01.697Z,18.87
2019-04-25T11:29:28.136Z,15.57
2019-04-25T11:31:54.240Z,20.63
2019-04-25T11:34:21.209Z,16.63
2019-04-25T11:36:47.120Z,22.07
2019-04-25T11:39:24.355Z,17.63
2019-04-25T11:41:51.373Z,23.63
2019-04-25T11:44:17.264Z,19.70
2019-04-25T11:46:44.648Z,24.47
2019-04-25T11:49:15.077Z,19.07
2019-04-25T11:51:41.805Z,19.77
2019-04-25T11:54:08.601Z,19.47
2019-04-25T11:56:34.418Z,18.33
2019-04-25T11:59:00.271Z,16.77
2019-04-25T12:01:26.358Z,22.20
2019-04-25T12:03:52.692Z,15.17
2019-04-25T12:06:18.704Z,16.40
2019-04-25T12:08:46.508Z,16.03
2019-04-25T12:11:13.904Z,19.47
2019-04-25T12:13:40.081Z,20.63
2019-04-25T12:16:06.489Z,23.37
2019-04-25T12:18:33.901Z,21.73
2019-04-25T12:21:00.362Z,26.17
2019-04-25T12:23:26.252Z,25.63
2019-04-25T12:25:54.032Z,20.57
2019-04-25T12:28:19.860Z,23.17
2019-04-25T12:30:47.311Z,20.53
2019-04-25T12:33:21.065Z,26.10
2019-04-25T12:35:41.366Z,20.70
2019-04-25T12:38:07.214Z,21.83
2019-04-25T12:40:34.340Z,22.73
2019-04-25T12:43:00.326Z,19.93
2019-04-25T12:45:28.079Z,24.10
2019-04-25T12:47:59.361Z,23.53
2019-04-25T12:50:25.470Z,19.10
2019-04-25T12:52:51.421Z,22.87
2019-04-25T12:55:17.433Z,20.90
2019-04-25T12:57:43.285Z,22.13
2019-04-25T13:00:13.956Z,18.80
2019-04-25T13:02:40.155Z,21.53
2019-04-25T13:05:07.117Z,19.40
2019-04-25T13:07:33.129Z,20.97
2019-04-25T13:09:58.982Z,24.97
2019-04-25T13:12:25.165Z,22.97
2019-04-25T13:14:51.217Z,24.77
2019-04-25T13:17:17.069Z,23.40
2019-04-25T13:19:45.618Z,18.57
2019-04-25T13:22:11.944Z,25.43
2019-04-25T13:24:37.866Z,21.63
2019-04-25T13:27:06.138Z,24.63
2019-04-25T13:29:39.717Z,23.47
2019-04-25T13:32:22.835Z,24.37
2019-04-25T13:34:50.626Z,24.33
2019-04-25T13:37:16.665Z,20.37
2019-04-25T13:39:44.178Z,23.87
2019-04-25T13:42:11.609Z,29.40
2019-04-25T13:44:37.555Z,25.73
2019-04-25T13:47:04.602Z,27.57
2019-04-25T13:49:31.582Z,26.93
2019-04-25T13:51:57.640Z,23.47
2019-04-25T13:54:24.069Z,21.43
2019-04-25T13:56:51.060Z,21.83
2019-04-25T13:59:17.124Z,24.30
2019-04-25T14:01:44.200Z,22.53
2019-04-25T14:04:10.384Z,29.70
2019-04-25T14:06:36.305Z,27.40
2019-04-25T14:09:06.628Z,26.37
2019-04-25T14:11:34.180Z,24.40
2019-04-25T14:14:01.298Z,25.83
2019-04-25T14:16:41.072Z,25.80
2019-04-25T14:19:21.909Z,24.93
2019-04-25T14:21:48.425Z,27.83
2019-04-25T14:24:20.380Z,24.30
2019-04-25T14:26:42.244Z,31.37
2019-04-25T14:29:08.093Z,26.13
2019-04-25T14:31:44.813Z,21.13
2019-04-25T14:34:03.286Z,28.80
2019-04-25T14:36:30.251Z,27.90
2019-04-25T14:38:56.255Z,32.03
2019-04-25T14:41:22.376Z,31.47
2019-04-25T14:43:48.867Z,27.53
2019-04-25T14:46:14.917Z,33.33
2019-04-25T14:48:40.937Z,34.67
2019-04-25T14:51:06.920Z,26.67
2019-04-25T14:53:34.057Z,34.23
2019-04-25T14:56:06.792Z,31.33
2019-04-25T14:58:34.755Z,29.50
2019-04-25T15:01:00.789Z,32.07
2019-04-25T15:03:26.632Z,33.90
2019-04-25T15:05:52.604Z,30.67
2019-04-25T15:08:18.788Z,30.33
2019-04-25T15:10:44.629Z,39.27
2019-04-25T15:13:11.218Z,36.70
2019-04-25T15:15:37.248Z,30.70
2019-04-25T15:18:03.306Z,28.53
2019-04-25T15:20:30.149Z,27.27
2019-04-25T15:22:56.119Z,28.87
2019-04-25T15:25:22.320Z,24.60
2019-04-25T15:27:48.159Z,28.20
2019-04-25T15:30:16.220Z,27.50
2019-04-25T15:32:42.105Z,25.03
2019-04-25T15:35:09.943Z,32.80
2019-04-25T15:37:38.495Z,23.33
2019-04-25T15:40:07.607Z,26.83
2019-04-25T15:42:35.458Z,29.80
2019-04-25T15:45:12.202Z,29.17
2019-04-25T15:47:38.044Z,29.50
2019-04-25T15:50:04.968Z,30.87
2019-04-25T15:52:31.473Z,25.70
2019-04-25T15:55:06.909Z,35.33
2019-04-25T15:57:25.405Z,33.20
2019-04-25T15:59:51.239Z,22.50
2019-04-25T16:02:18.200Z,28.37
2019-04-25T16:04:44.058Z,26.43
2019-04-25T16:07:10.909Z,32.77
2019-04-25T16:09:36.741Z,24.73
2019-04-25T16:12:02.822Z,22.23
2019-04-25T16:14:28.647Z,21.77
2019-04-25T16:16:54.602Z,23.03
2019-04-25T16:19:20.542Z,22.57
2019-04-25T16:21:46.487Z,19.50
2019-04-25T16:24:12.839Z,20.50
2019-04-25T16:26:38.682Z,15.83
2019-04-25T16:29:04.826Z,20.60
2019-04-25T16:31:30.761Z,17.57
2019-04-25T16:33:56.612Z,21.20
2019-04-25T16:36:22.678Z,21.07
2019-04-25T16:38:48.628Z,15.53
2019-04-25T16:41:14.993Z,19.47
2019-04-25T16:43:43.225Z,18.67
2019-04-25T16:46:09.257Z,22.07
2019-04-25T16:48:35.686Z,22.03
2019-04-25T16:51:01.546Z,16.83
2019-04-25T16:53:27.697Z,14.20
2019-04-25T16:55:53.629Z,16.00
2019-04-25T16:58:19.592Z,13.93
2019-04-25T17:00:47.540Z,16.43
2019-04-25T17:03:14.612Z,13.77
2019-04-25T17:05:40.854Z,16.03
2019-04-25T17:08:07.199Z,15.53
2019-04-25T17:10:33.194Z,21.27
2019-04-25T17:12:59.166Z,15.27
2019-04-25T17:15:32.897Z,15.17
2019-04-25T17:18:06.948Z,14.87
2019-04-25T17:20:34.829Z,18.40
2019-04-25T17:23:02.567Z,16.60
2019-04-25T17:25:28.411Z,18.17
2019-04-25T17:27:54.463Z,16.80
2019-04-25T17:30:20.835Z,13.27
2019-04-25T17:32:53.874Z,19.97
2019-04-25T17:35:21.311Z,19.83
2019-04-25T17:37:52.311Z,15.17
2019-04-25T17:40:26.096Z,16.87
2019-04-25T17:42:51.918Z,17.90
2019-04-25T17:45:19.732Z,15.40
2019-04-25T17:47:54.349Z,14.93
2019-04-25T17:50:13.602Z,11.87
2019-04-25T17:52:40.632Z,12.97
2019-04-25T17:55:06.959Z,11.70
2019-04-25T17:57:33.073Z,11.13
2019-04-25T17:59:59.187Z,17.77
2019-04-25T18:02:25.107Z,11.47
2019-04-25T18:04:51.042Z,10.93
2019-04-25T18:07:16.971Z,12.17
2019-04-25T18:09:43.472Z,17.50
2019-04-25T18:12:09.691Z,13.87
2019-04-25T18:14:36.398Z,18.57
2019-04-25T18:17:02.738Z,13.80
2019-04-25T18:19:42.853Z,12.43
2019-04-25T18:22:10.784Z,15.93
2019-04-25T18:24:45.305Z,19.03
2019-04-25T18:27:13.399Z,15.97
2019-04-25T18:29:39.525Z,16.17
2019-04-25T18:32:05.760Z,13.80
2019-04-25T18:34:46.510Z,15.53
2019-04-25T18:37:20.728Z,16.47
2019-04-25T18:40:06.708Z,17.07
2019-04-25T18:42:44.167Z,16.73
2019-04-25T18:45:12.353Z,15.27
2019-04-25T18:47:38.301Z,12.43
2019-04-25T18:50:05.411Z,14.43
2019-04-25T18:52:45.212Z,13.67
2019-04-25T18:55:13.152Z,14.53
2019-04-25T18:57:45.478Z,16.27
2019-04-25T19:00:25.544Z,15.07
2019-04-25T19:02:53.319Z,14.23
2019-04-25T19:05:21.158Z,17.40
2019-04-25T19:07:47.407Z,14.80
2019-04-25T19:10:13.886Z,18.03
2019-04-25T19:12:40.211Z,14.70
2019-04-25T19:15:07.607Z,15.63
2019-04-25T19:17:34.593Z,17.03
2019-04-25T19:20:00.440Z,18.63
2019-04-25T19:22:26.349Z,16.30
2019-04-25T19:24:52.273Z,16.33
2019-04-25T19:27:23.926Z,13.93
2019-04-25T19:29:47.462Z,16.13
2019-04-25T19:32:13.309Z,14.07
2019-04-25T19:34:42.560Z,12.83
2019-04-25T19:37:08.713Z,24.17
2019-04-25T19:39:36.472Z,12.27
2019-04-25T19:42:19.273Z,15.17
2019-04-25T19:44:45.307Z,15.93
2019-04-25T19:47:11.366Z,14.10
2019-04-25T19:49:37.473Z,15.23
2019-04-25T19:52:03.519Z,16.23
2019-04-25T19:54:29.405Z,13.17
2019-04-25T19:56:56.510Z,15.80
2019-04-25T19:59:22.659Z,17.53
2019-04-25T20:01:50.605Z,18.60
2019-04-25T20:04:18.631Z,20.07
2019-04-25T20:07:03.069Z,14.37
2019-04-25T20:09:33.580Z,15.27
2019-04-25T20:11:59.539Z,13.03
2019-04-25T20:14:25.542Z,12.90
2019-04-25T20:16:51.766Z,17.67
2019-04-25T20:19:18.077Z,11.30
2019-04-25T20:21:44.586Z,14.43
2019-04-25T20:24:11.693Z,13.23
2019-04-25T20:26:37.632Z,12.20
2019-04-25T20:29:03.678Z,13.10
2019-04-25T20:31:29.559Z,16.40
2019-04-25T20:34:05.390Z,14.03
2019-04-25T20:36:23.329Z,19.47
2019-04-25T20:38:49.370Z,16.60
2019-04-25T20:41:15.294Z,18.63
2019-04-25T20:43:41.298Z,14.93
2019-04-25T20:46:07.379Z,16.50
2019-04-25T20:48:33.439Z,14.30
2019-04-25T20:50:59.375Z,15.27
2019-04-25T20:53:25.408Z,13.33
2019-04-25T20:55:51.446Z,13.77
2019-04-25T20:58:17.490Z,15.47
2019-04-25T21:00:45.699Z,16.30
2019-04-25T21:03:11.742Z,13.83
2019-04-25T21:05:37.804Z,8.93
2019-04-25T21:08:03.805Z,15.27
2019-04-25T21:10:29.637Z,14.45
2019-04-25T21:12:55.773Z,15.00
2019-04-25T21:15:35.327Z,14.50
2019-04-25T21:18:05.747Z,10.97
2019-04-25T21:20:31.741Z,11.13
2019-04-25T21:22:57.890Z,12.63
2019-04-25T21:25:23.928Z,12.37
2019-04-25T21:27:50.205Z,12.97
2019-04-25T21:30:17.394Z,9.77
2019-04-25T21:32:52.281Z,14.43
2019-04-25T21:35:19.929Z,12.63
2019-04-25T21:37:46.170Z,12.47
2019-04-25T21:40:26.645Z,11.87
2019-04-25T21:43:04.927Z,16.17
2019-04-25T21:45:31.890Z,12.67
2019-04-25T21:47:58.749Z,11.33
2019-04-25T21:50:25.113Z,10.80
2019-04-25T21:52:51.433Z,13.17
2019-04-25T21:55:17.608Z,13.70
2019-04-25T21:57:43.760Z,11.57
2019-04-25T22:00:14.812Z,9.27
2019-04-25T22:02:41.104Z,10.67
2019-04-25T22:05:07.439Z,16.77
2019-04-25T22:07:33.819Z,14.03
2019-04-25T22:10:00.294Z,11.10
2019-04-25T22:12:26.236Z,16.20
2019-04-25T22:14:52.260Z,14.30
2019-04-25T22:17:18.322Z,13.17
2019-04-25T22:19:44.572Z,16.20
2019-04-25T22:22:10.936Z,15.20
2019-04-25T22:24:36.907Z,14.87
2019-04-25T22:27:05.393Z,14.17
2019-04-25T22:29:33.147Z,12.80
2019-04-25T22:32:01.489Z,11.60
2019-04-25T22:34:29.973Z,15.10
2019-04-25T22:36:55.909Z,12.70
2019-04-25T22:39:21.786Z,14.83
2019-04-25T22:41:49.825Z,15.03
2019-04-25T22:44:17.766Z,14.47
2019-04-25T22:46:43.946Z,14.17
2019-04-25T22:49:10.081Z,15.57
2019-04-25T22:51:36.468Z,15.47
2019-04-25T22:54:03.817Z,20.60
2019-04-25T22:56:29.676Z,18.57
2019-04-25T22:58:55.729Z,20.53
2019-04-25T23:01:35.989Z,20.67
2019-04-25T23:04:03.829Z,18.97
2019-04-25T23:06:30.011Z,18.13
2019-04-25T23:08:55.894Z,19.83
2019-04-25T23:11:21.725Z,20.97
2019-04-25T23:13:47.763Z,17.90
2019-04-25T23:16:13.932Z,23.43
2019-04-25T23:18:39.770Z,21.10
2019-04-25T23:21:06.732Z,20.50
2019-04-25T23:23:32.671Z,26.13
2019-04-25T23:26:00.431Z,19.17
2019-04-25T23:28:31.342Z,20.87
2019-04-25T23:31:02.047Z,23.10
2019-04-25T23:33:27.894Z,22.60
2019-04-25T23:35:54.147Z,23.27
2019-04-25T23:38:19.969Z,21.40
2019-04-25T23:40:46.076Z,18.93
2019-04-25T23:43:12.467Z,22.70
2019-04-25T23:45:38.297Z,26.43
2019-04-25T23:48:04.176Z,19.23
2019-04-25T23:50:30.303Z,19.30
2019-04-25T23:52:56.126Z,22.70
2019-04-25T23:55:22.531Z,24.00
2019-04-25T23:57:48.547Z,20.50
